Time;durP1;ratioP1;P1;durP2;ratioP2;P2;SDS_P1;SDS_P2;PMS_P1;PMS_P2;Temp;Humidity;BMP_temperature;BMP_pressure;BME280_temperature;BME280_humidity;BME280_pressure;Samples;Min_cycle;Max_cycle;Signal;HPM_P1;HPM_P2
2024/03/27 00:00:15;;;;;;;10.77;9.30;;;;;;;6.21;100.00;98974.41;10231455;28;20081;-74
2024/03/27 00:05:11;;;;;;;14.52;9.90;;;;;;;6.08;100.00;98971.63;10223969;28;20049;-73
2024/03/27 00:10:07;;;;;;;12.57;9.65;;;;;;;6.07;100.00;98956.47;10230566;28;20065;-73
2024/03/27 00:15:03;;;;;;;11.38;10.18;;;;;;;6.00;100.00;98953.47;10228203;28;20045;-72
2024/03/27 00:19:59;;;;;;;12.68;9.25;;;;;;;5.93;100.00;98950.47;10230111;28;20493;-73
2024/03/27 00:24:54;;;;;;;10.20;9.10;;;;;;;5.95;100.00;98950.97;10225605;28;20061;-74
2024/03/27 00:29:51;;;;;;;10.52;9.50;;;;;;;5.79;100.00;98944.50;10227596;28;20520;-73
2024/03/27 00:34:46;;;;;;;11.52;9.48;;;;;;;5.74;100.00;98939.28;10222489;28;20107;-72
2024/03/27 00:39:42;;;;;;;10.07;9.07;;;;;;;5.67;100.00;98935.16;10228710;28;20071;-72
2024/03/27 00:44:37;;;;;;;14.93;10.40;;;;;;;5.65;100.00;98929.28;10227748;28;20059;-72
2024/03/27 00:49:33;;;;;;;10.85;9.75;;;;;;;5.59;100.00;98917.03;10230785;28;20327;-73
2024/03/27 00:54:28;;;;;;;10.52;9.48;;;;;;;5.63;100.00;98923.38;10228734;28;20103;-74
2024/03/27 00:59:25;;;;;;;10.60;9.50;;;;;;;5.60;100.00;98901.56;10229120;28;20041;-74
2024/03/27 01:04:20;;;;;;;12.48;9.50;;;;;;;5.56;100.00;98890.56;10230924;28;20041;-74
2024/03/27 01:09:16;;;;;;;10.88;9.88;;;;;;;5.46;100.00;98878.19;10225258;28;20497;-74
2024/03/27 01:14:11;;;;;;;10.98;9.88;;;;;;;5.32;100.00;98874.94;10227487;28;20056;-73
2024/03/27 01:19:07;;;;;;;10.73;9.57;;;;;;;5.38;100.00;98880.97;10229215;28;20186;-71
2024/03/27 01:24:03;;;;;;;11.82;9.75;;;;;;;5.33;100.00;98870.31;10227352;28;20136;-70
2024/03/27 01:28:58;;;;;;;11.95;9.88;;;;;;;5.31;100.00;98856.28;10220292;28;20132;-72
2024/03/27 01:33:54;;;;;;;10.80;9.70;;;;;;;5.26;100.00;98865.41;10222088;28;20042;-72
2024/03/27 01:38:49;;;;;;;14.73;10.00;;;;;;;5.21;100.00;98860.19;10227309;28;20054;-71
2024/03/27 01:43:45;;;;;;;11.00;9.73;;;;;;;5.17;100.00;98868.16;10227039;28;20049;-72
2024/03/27 01:48:41;;;;;;;11.43;9.95;;;;;;;5.10;100.00;98867.88;10223596;28;20067;-71
2024/03/27 01:53:38;;;;;;;10.90;9.80;;;;;;;5.10;100.00;98872.50;10224412;28;20034;-71
2024/03/27 01:58:34;;;;;;;10.20;9.20;;;;;;;5.09;100.00;98876.34;10221587;28;20048;-71
2024/03/27 02:03:30;;;;;;;9.70;8.63;;;;;;;5.04;100.00;98863.78;10222982;28;20064;-72
2024/03/27 02:08:25;;;;;;;10.90;9.80;;;;;;;5.02;100.00;98855.19;10215260;28;20132;-72
2024/03/27 02:13:21;;;;;;;10.55;9.10;;;;;;;4.99;100.00;98855.81;10209222;28;20041;-71
2024/03/27 02:18:16;;;;;;;16.33;9.48;;;;;;;4.94;100.00;98847.88;10225266;28;20125;-73
2024/03/27 02:23:17;;;;;;;12.43;10.27;;;;;;;4.84;100.00;98841.69;10218260;28;20042;-73
2024/03/27 02:28:13;;;;;;;11.70;10.50;;;;;;;4.80;100.00;98843.50;10223642;28;20048;-74
2024/03/27 02:33:08;;;;;;;12.68;9.82;;;;;;;4.77;100.00;98833.28;10216968;28;20042;-72
2024/03/27 02:38:04;;;;;;;13.07;10.82;;;;;;;4.74;100.00;98828.53;10227871;28;20042;-72
2024/03/27 02:42:59;;;;;;;11.10;10.00;;;;;;;4.63;100.00;98827.31;10210374;28;20046;-72
2024/03/27 02:47:55;;;;;;;13.77;9.98;;;;;;;4.69;100.00;98822.50;10223108;28;20067;-75
2024/03/27 02:52:51;;;;;;;11.50;10.35;;;;;;;4.70;100.00;98827.59;10219055;28;20044;-73
2024/03/27 02:57:47;;;;;;;11.80;10.60;;;;;;;4.63;100.00;98821.88;10215750;28;20080;-73
2024/03/27 03:02:42;;;;;;;10.73;9.35;;;;;;;4.68;100.00;98840.66;10221002;28;20046;-73
2024/03/27 03:07:38;;;;;;;11.27;10.13;;;;;;;4.66;100.00;98821.22;10215427;28;20037;-72
2024/03/27 03:12:33;;;;;;;10.88;9.80;;;;;;;4.62;100.00;98814.91;10220701;28;20182;-72
2024/03/27 03:17:29;;;;;;;14.10;11.55;;;;;;;4.62;100.00;98806.78;10226603;28;20095;-72
2024/03/27 03:22:24;;;;;;;11.48;10.38;;;;;;;4.53;100.00;98795.19;10219667;28;20052;-71
2024/03/27 03:27:20;;;;;;;12.52;9.95;;;;;;;4.54;100.00;98791.34;10220930;28;20041;-70
2024/03/27 03:32:15;;;;;;;11.80;10.70;;;;;;;4.43;100.00;98785.50;10218951;28;20092;-71
2024/03/27 03:37:11;;;;;;;11.80;10.70;;;;;;;4.43;100.00;98786.31;10208133;28;20042;-72
2024/03/27 03:47:09;;;;;;;15.13;10.40;;;;;;;4.38;100.00;98775.63;10054158;28;20067;-74
2024/03/27 03:52:05;;;;;;;12.10;10.55;;;;;;;4.30;100.00;98749.44;10033531;28;20507;-74
2024/03/27 03:57:00;;;;;;;12.27;11.07;;;;;;;4.34;100.00;98746.84;10096367;28;20431;-73
2024/03/27 04:01:56;;;;;;;10.57;9.57;;;;;;;4.36;100.00;98731.91;10043629;28;20039;-73
2024/03/27 04:06:52;;;;;;;13.13;11.43;;;;;;;4.40;100.00;98715.78;10051299;28;20055;-73
2024/03/27 04:11:47;;;;;;;13.40;11.25;;;;;;;4.36;100.00;98718.38;10085754;28;20046;-73
2024/03/27 04:16:43;;;;;;;13.02;10.93;;;;;;;4.33;100.00;98705.47;10072100;28;20059;-71
2024/03/27 04:21:38;;;;;;;14.82;12.10;;;;;;;4.36;100.00;98709.44;10043800;28;20070;-72
2024/03/27 04:26:34;;;;;;;12.45;11.25;;;;;;;4.38;100.00;98713.41;10074899;28;20047;-72
2024/03/27 04:31:29;;;;;;;12.48;11.27;;;;;;;4.32;100.00;98719.34;10086738;28;20053;-71
2024/03/27 04:36:25;;;;;;;13.95;11.60;;;;;;;4.33;100.00;98727.13;10086778;28;20130;-71
2024/03/27 04:41:20;;;;;;;13.35;11.95;;;;;;;4.34;100.00;98720.59;10086655;28;20039;-70
2024/03/27 04:46:16;;;;;;;14.38;12.90;;;;;;;4.30;100.00;98727.78;10079280;28;20051;-68
2024/03/27 04:51:12;;;;;;;14.95;11.82;;;;;;;4.31;100.00;98726.66;10084190;28;20062;-69
2024/03/27 04:56:07;;;;;;;14.88;12.95;;;;;;;4.39;100.00;98720.41;10079609;28;20043;-68
2024/03/27 05:01:03;;;;;;;12.98;11.60;;;;;;;4.32;100.00;98709.31;10024149;28;20110;-67
2024/03/27 05:05:58;;;;;;;13.32;12.07;;;;;;;4.46;100.00;98716.44;10038165;28;20215;-67
2024/03/27 05:10:54;;;;;;;14.25;12.80;;;;;;;4.48;100.00;98716.88;10087537;28;20043;-68
2024/03/27 05:15:49;;;;;;;14.63;13.18;;;;;;;4.59;100.00;98728.91;10087993;28;20054;-70
2024/03/27 05:20:46;;;;;;;14.85;13.10;;;;;;;4.60;100.00;98722.41;10078412;28;20047;-69
2024/03/27 05:25:41;;;;;;;13.90;12.60;;;;;;;4.62;100.00;98717.47;10081647;28;20070;-68
2024/03/27 05:30:37;;;;;;;13.93;12.52;;;;;;;4.72;100.00;98727.91;10066659;28;20050;-69
2024/03/27 05:35:33;;;;;;;14.65;13.10;;;;;;;4.76;100.00;98726.13;10090421;28;20122;-68
2024/03/27 05:40:28;;;;;;;14.50;12.52;;;;;;;4.89;100.00;98715.38;10101717;28;20039;-69
2024/03/27 05:45:24;;;;;;;15.35;12.85;;;;;;;5.00;100.00;98716.56;10083041;28;20061;-68
2024/03/27 05:50:19;;;;;;;14.73;13.05;;;;;;;5.05;100.00;98713.66;10085630;28;20046;-69
2024/03/27 05:55:15;;;;;;;14.77;13.38;;;;;;;5.13;100.00;98704.69;10064595;28;20047;-69
2024/03/27 06:00:12;;;;;;;15.30;13.05;;;;;;;5.13;100.00;98688.44;10067337;28;20051;-68
2024/03/27 06:05:09;;;;;;;14.93;13.32;;;;;;;5.14;100.00;98695.44;10067756;28;20047;-68
2024/03/27 06:10:04;;;;;;;15.18;13.65;;;;;;;5.21;100.00;98706.53;10061900;28;20048;-67
2024/03/27 06:15:00;;;;;;;15.50;13.38;;;;;;;5.30;100.00;98697.56;10065656;28;20054;-68
2024/03/27 06:19:56;;;;;;;16.13;14.00;;;;;;;5.33;100.00;98699.59;10089362;28;20047;-70
2024/03/27 06:24:53;;;;;;;14.18;12.77;;;;;;;5.33;100.00;98707.72;10032271;29;20056;-68
2024/03/27 06:29:49;;;;;;;15.48;13.88;;;;;;;5.35;100.00;98706.25;10038237;28;20071;-68
2024/03/27 06:34:45;;;;;;;15.27;13.30;;;;;;;5.46;100.00;98722.91;10068180;28;20086;-68
2024/03/27 06:39:41;;;;;;;18.80;14.60;;;;;;;5.66;100.00;98732.94;10085248;28;20440;-68
2024/03/27 06:44:36;;;;;;;14.27;12.82;;;;;;;5.83;100.00;98748.25;10067637;28;20762;-68
2024/03/27 06:49:33;;;;;;;14.88;13.57;;;;;;;5.96;100.00;98746.38;10087315;28;20054;-70
2024/03/27 06:54:29;;;;;;;15.73;13.40;;;;;;;5.96;100.00;98762.66;10084303;28;20062;-68
2024/03/27 06:59:25;;;;;;;16.20;13.63;;;;;;;6.00;100.00;98766.28;10079211;28;20083;-67
2024/03/27 07:04:20;;;;;;;14.50;12.98;;;;;;;6.02;100.00;98768.69;10075668;28;20035;-68
2024/03/27 07:09:16;;;;;;;15.75;12.55;;;;;;;6.03;100.00;98757.47;10066997;28;20055;-68
2024/03/27 07:14:11;;;;;;;15.85;12.93;;;;;;;6.19;100.00;98743.28;10065309;28;20043;-68
2024/03/27 07:19:07;;;;;;;13.38;11.82;;;;;;;6.30;100.00;98744.44;10074471;28;20126;-70
2024/03/27 07:24:04;;;;;;;13.98;12.13;;;;;;;6.38;100.00;98729.94;10090677;28;20054;-70
2024/03/27 07:28:59;;;;;;;15.25;11.88;;;;;;;6.51;100.00;98728.81;10078707;28;20134;-70
2024/03/27 07:33:55;;;;;;;12.52;11.32;;;;;;;6.64;100.00;98726.13;10076299;28;20418;-69
2024/03/27 07:38:50;;;;;;;13.02;10.93;;;;;;;6.77;100.00;98727.69;10097011;28;20626;-70
2024/03/27 07:43:46;;;;;;;12.98;11.68;;;;;;;6.99;100.00;98720.22;10079732;28;20043;-67
2024/03/27 07:48:42;;;;;;;18.27;11.38;;;;;;;7.12;100.00;98724.47;10092602;28;20058;-68
2024/03/27 07:53:37;;;;;;;14.43;11.13;;;;;;;7.26;100.00;98705.84;10092440;28;20039;-68
2024/03/27 07:58:33;;;;;;;13.38;10.90;;;;;;;7.40;100.00;98707.41;10071269;28;20059;-69
2024/03/27 08:03:30;;;;;;;15.07;10.95;;;;;;;7.65;100.00;98692.56;10062783;28;20035;-70
2024/03/27 08:08:26;;;;;;;11.88;10.68;;;;;;;7.84;100.00;98674.78;10091980;28;20071;-70
2024/03/27 08:13:21;;;;;;;12.40;11.18;;;;;;;8.00;100.00;98661.97;10078678;28;20055;-69
2024/03/27 08:18:18;;;;;;;13.23;11.88;;;;;;;8.20;100.00;98660.94;10079639;28;20045;-69
2024/03/27 08:23:13;;;;;;;13.25;11.80;;;;;;;8.40;100.00;98655.59;10082290;28;20046;-68
2024/03/27 08:28:09;;;;;;;12.10;10.93;;;;;;;8.65;100.00;98648.00;10076595;28;20050;-67
2024/03/27 08:33:04;;;;;;;13.40;10.80;;;;;;;8.84;100.00;98642.59;10073341;28;20046;-68
2024/03/27 08:38:00;;;;;;;13.18;11.60;;;;;;;9.01;100.00;98635.94;10076446;28;20043;-69
2024/03/27 08:42:56;;;;;;;11.95;10.77;;;;;;;9.19;100.00;98636.28;10078131;28;20381;-69
2024/03/27 08:47:52;;;;;;;12.25;10.88;;;;;;;9.46;100.00;98650.81;10073271;28;20441;-68
2024/03/27 08:52:47;;;;;;;11.68;10.55;;;;;;;9.87;100.00;98648.47;10093665;28;20043;-70
2024/03/27 08:57:43;;;;;;;16.55;11.48;;;;;;;10.13;100.00;98636.03;10072707;28;20059;-67
2024/03/27 09:02:38;;;;;;;12.18;10.45;;;;;;;10.24;100.00;98628.78;10074316;28;20079;-68
2024/03/27 09:07:34;;;;;;;12.90;10.32;;;;;;;10.34;100.00;98630.13;10089381;28;20043;-68
2024/03/27 09:12:30;;;;;;;12.68;11.38;;;;;;;10.44;100.00;98615.06;10083898;28;20047;-68
2024/03/27 09:17:26;;;;;;;11.80;10.60;;;;;;;10.59;100.00;98605.91;10076523;28;20086;-68
2024/03/27 09:22:21;;;;;;;13.50;9.88;;;;;;;10.80;100.00;98610.88;10066294;28;20495;-69
2024/03/27 09:27:17;;;;;;;14.95;10.10;;;;;;;11.04;100.00;98615.09;10078920;28;20039;-69
2024/03/27 09:32:12;;;;;;;13.60;10.32;;;;;;;11.29;100.00;98598.19;10079096;28;20049;-68
2024/03/27 09:37:08;;;;;;;13.07;9.95;;;;;;;11.63;100.00;98609.09;10092072;28;20127;-68
2024/03/27 09:42:04;;;;;;;11.05;9.73;;;;;;;11.89;100.00;98625.41;10078470;28;20035;-68
2024/03/27 09:47:01;;;;;;;12.48;9.68;;;;;;;11.68;100.00;98619.72;10073726;28;20047;-68
2024/03/27 09:51:57;;;;;;;16.08;10.77;;;;;;;11.89;100.00;98624.63;10047875;28;20067;-67
2024/03/27 09:56:55;;;;;;;10.45;9.10;;;;;;;12.39;100.00;98625.81;10075505;28;20691;-68
2024/03/27 10:02:01;;;;;;;9.75;8.35;;;;;;;12.48;100.00;98616.47;10094274;28;20075;-68
2024/03/27 10:06:57;;;;;;;10.70;9.18;;;;;;;12.56;100.00;98609.88;10073472;28;20071;-68
2024/03/27 10:11:53;;;;;;;11.27;9.10;;;;;;;12.65;100.00;98610.31;10088314;28;20114;-69
2024/03/27 10:16:48;;;;;;;10.27;9.05;;;;;;;12.94;100.00;98611.25;10084034;28;20039;-69
2024/03/27 10:21:44;;;;;;;11.27;8.75;;;;;;;13.14;100.00;98609.00;10070300;28;20047;-70
2024/03/27 10:26:42;;;;;;;12.05;9.15;;;;;;;13.48;100.00;98595.00;10103276;28;20131;-70
2024/03/27 10:31:39;;;;;;;10.93;8.60;;;;;;;14.23;100.00;98599.78;10099003;28;20073;-70
2024/03/27 10:36:35;;;;;;;12.95;10.73;;;;;;;14.55;100.00;98605.28;10086803;28;20451;-69
2024/03/27 10:41:30;;;;;;;13.38;9.32;;;;;;;13.92;100.00;98602.13;10070241;28;20440;-69
2024/03/27 10:46:29;;;;;;;11.70;9.77;;;;;;;14.05;100.00;98591.53;10070033;28;20038;-70
2024/03/27 10:51:25;;;;;;;10.60;9.45;;;;;;;14.93;100.00;98587.06;10093345;28;20089;-70
2024/03/27 10:56:21;;;;;;;10.07;8.90;;;;;;;15.28;100.00;98590.84;10082220;28;20118;-70
2024/03/27 11:01:18;;;;;;;9.30;8.35;;;;;;;16.03;100.00;98592.34;10081580;28;20087;-69
2024/03/27 11:06:13;;;;;;;11.38;9.55;;;;;;;16.60;100.00;98599.31;10098622;28;20082;-70
2024/03/27 11:11:15;;;;;;;11.25;9.57;;;;;;;16.43;100.00;98601.06;10085551;28;20134;-70
2024/03/27 11:16:11;;;;;;;9.60;8.23;;;;;;;16.75;100.00;98588.91;10096673;28;20070;-69
2024/03/27 11:21:06;;;;;;;10.70;8.20;;;;;;;16.97;100.00;98584.75;10107347;28;20086;-69
2024/03/27 11:26:02;;;;;;;10.93;8.73;;;;;;;16.74;100.00;98598.41;10087884;28;20049;-70
2024/03/27 11:30:58;;;;;;;10.23;8.30;;;;;;;15.76;100.00;98576.41;10088506;28;20039;-69
2024/03/27 11:35:54;;;;;;;9.82;8.18;;;;;;;16.18;100.00;98598.53;10100071;28;20083;-69
2024/03/27 11:40:51;;;;;;;10.23;8.48;;;;;;;15.92;100.00;98599.91;10101586;28;20126;-69
2024/03/27 11:45:50;;;;;;;8.57;7.65;;;;;;;15.67;100.00;98583.56;10098314;28;20070;-70
2024/03/27 11:50:46;;;;;;;10.35;8.77;;;;;;;15.88;100.00;98577.13;10077598;28;21220;-70
2024/03/27 11:55:43;;;;;;;10.80;7.97;;;;;;;15.52;100.00;98577.34;10082290;28;20499;-70
2024/03/27 12:00:39;;;;;;;10.45;9.23;;;;;;;15.74;100.00;98576.03;10097274;28;20747;-69
2024/03/27 12:05:36;;;;;;;9.20;8.23;;;;;;;15.85;100.00;98583.44;10086504;28;20043;-69
2024/03/27 12:10:31;;;;;;;10.63;7.93;;;;;;;16.10;100.00;98581.25;10049232;28;20081;-67
2024/03/27 12:15:27;;;;;;;9.27;8.27;;;;;;;16.18;100.00;98585.53;10071031;28;20499;-70
2024/03/27 12:20:30;;;;;;;11.43;9.50;;;;;;;16.90;100.00;98606.13;10081924;28;20047;-70
2024/03/27 12:25:32;;;;;;;9.00;8.10;;;;;;;16.41;100.00;98603.47;10070733;28;20523;-68
2024/03/27 12:30:27;;;;;;;10.02;8.45;;;;;;;16.40;100.00;98607.41;10067739;28;20519;-67
2024/03/27 12:35:23;;;;;;;8.98;7.47;;;;;;;18.17;100.00;98590.97;10044635;28;20049;-68
2024/03/27 12:40:19;;;;;;;11.50;8.20;;;;;;;18.43;94.90;98603.16;10079061;28;20051;-68
2024/03/27 12:45:15;;;;;;;9.70;7.30;;;;;;;20.07;94.86;98600.19;10080630;28;20086;-68
2024/03/27 12:50:10;;;;;;;11.00;7.95;;;;;;;20.92;75.67;98605.53;10079123;28;20047;-69
2024/03/27 12:55:07;;;;;;;11.27;8.80;;;;;;;19.92;78.51;98597.75;10072706;28;20055;-69
2024/03/27 13:00:03;;;;;;;11.80;8.40;;;;;;;20.69;78.92;98597.44;10089143;28;20488;-69
2024/03/27 13:04:59;;;;;;;11.25;8.55;;;;;;;23.14;64.46;98592.09;10080197;28;20063;-68
2024/03/27 13:09:54;;;;;;;11.43;8.52;;;;;;;24.13;63.92;98581.06;10046934;29;20055;-69
2024/03/27 13:14:50;;;;;;;11.05;8.85;;;;;;;24.13;63.92;98581.06;10028617;28;20039;-69
2024/03/27 13:19:46;;;;;;;10.32;8.98;;;;;;;24.00;57.49;98588.81;10050333;28;20051;-68
2024/03/27 13:24:42;;;;;;;16.13;9.70;;;;;;;23.02;55.48;98584.56;10050249;28;20463;-68
2024/03/27 13:29:39;;;;;;;10.93;9.80;;;;;;;20.60;64.29;98596.06;10070065;28;20969;-69
2024/03/27 13:34:35;;;;;;;15.35;9.75;;;;;;;20.15;78.36;98593.25;10091126;28;20141;-68
2024/03/27 13:39:32;;;;;;;12.13;9.43;;;;;;;22.02;67.25;98594.31;10071130;28;20047;-68
2024/03/27 13:44:29;;;;;;;13.98;10.38;;;;;;;23.86;60.42;98592.16;10099089;28;20039;-69
2024/03/27 13:49:24;;;;;;;13.23;9.98;;;;;;;25.14;53.63;98593.53;10070854;28;20101;-69
2024/03/27 13:54:20;;;;;;;14.50;10.38;;;;;;;25.02;51.17;98588.88;10087116;28;20039;-69
2024/03/27 13:59:15;;;;;;;11.57;10.38;;;;;;;25.18;55.90;98582.97;10091843;28;20051;-69
2024/03/27 14:04:11;;;;;;;16.65;9.88;;;;;;;26.52;48.85;98590.13;10088220;28;20122;-69
2024/03/27 14:09:06;;;;;;;11.77;10.10;;;;;;;25.50;50.16;98587.06;10037978;28;20055;-69
2024/03/27 14:14:03;;;;;;;14.18;10.30;;;;;;;25.76;44.62;98581.88;10067849;28;20371;-69
2024/03/27 14:18:58;;;;;;;10.98;9.75;;;;;;;23.49;54.39;98572.47;10084808;28;20440;-69
2024/03/27 14:23:54;;;;;;;9.85;8.70;;;;;;;22.58;56.98;98584.53;10086975;28;20035;-68
2024/03/27 14:28:49;;;;;;;13.73;9.38;;;;;;;22.95;59.28;98584.81;10077789;28;20039;-70
2024/03/27 14:33:45;;;;;;;11.35;10.02;;;;;;;22.20;58.06;98594.50;10073269;28;20078;-69
2024/03/27 14:38:41;;;;;;;12.98;9.50;;;;;;;21.20;59.68;98590.03;10085824;28;20054;-71
2024/03/27 14:43:36;;;;;;;10.48;9.05;;;;;;;20.84;61.68;98592.28;10087846;28;20045;-69
2024/03/27 14:48:32;;;;;;;15.60;9.27;;;;;;;20.61;64.58;98596.88;10069084;28;20126;-69
2024/03/27 14:53:27;;;;;;;13.20;9.93;;;;;;;19.93;74.45;98598.53;10069050;28;20047;-69
2024/03/27 14:58:23;;;;;;;12.95;9.27;;;;;;;19.47;73.84;98578.97;10086281;28;20039;-69
2024/03/27 15:03:18;;;;;;;15.52;9.80;;;;;;;19.28;73.26;98596.41;10066664;28;20031;-69
2024/03/27 15:08:14;;;;;;;11.93;9.13;;;;;;;19.48;80.43;98597.16;10078280;28;20039;-69
2024/03/27 15:13:09;;;;;;;12.52;9.77;;;;;;;19.25;76.12;98611.88;10078046;28;20036;-70
2024/03/27 15:18:05;;;;;;;12.40;9.75;;;;;;;19.61;70.72;98615.88;10070403;28;20122;-69
2024/03/27 15:23:02;;;;;;;11.90;9.23;;;;;;;19.36;81.78;98611.69;10079153;28;20070;-69
2024/03/27 15:27:58;;;;;;;11.63;8.32;;;;;;;18.58;94.83;98597.34;10077822;28;20610;-69
2024/03/27 15:32:53;;;;;;;25.55;9.55;;;;;;;18.05;100.00;98605.38;10080612;28;20175;-70
2024/03/27 15:37:49;;;;;;;13.65;9.13;;;;;;;17.85;100.00;98603.31;10048454;28;20134;-70
2024/03/27 15:42:45;;;;;;;12.10;8.65;;;;;;;17.76;100.00;98608.56;10062892;28;20055;-70
2024/03/27 15:47:40;;;;;;;10.77;8.73;;;;;;;17.53;100.00;98608.50;10075477;28;20043;-70
2024/03/27 15:52:36;;;;;;;16.27;8.63;;;;;;;17.41;100.00;98591.28;10081536;28;20065;-70
2024/03/27 15:57:32;;;;;;;13.82;8.20;;;;;;;17.40;100.00;98589.69;10071090;28;20047;-72
2024/03/27 16:02:27;;;;;;;9.13;8.23;;;;;;;17.31;100.00;98603.25;10035811;28;20071;-70
2024/03/27 16:07:23;;;;;;;9.73;8.25;;;;;;;17.44;100.00;98611.75;10055162;28;20464;-70
2024/03/27 16:12:18;;;;;;;10.07;8.75;;;;;;;17.34;100.00;98613.47;10098613;28;20752;-71
2024/03/27 16:17:14;;;;;;;9.15;8.15;;;;;;;17.19;100.00;98612.09;10058959;28;20562;-70
2024/03/27 16:22:10;;;;;;;8.88;7.97;;;;;;;16.90;100.00;98631.75;10066776;28;20538;-70
2024/03/27 16:27:05;;;;;;;10.88;8.85;;;;;;;16.56;100.00;98202.13;10083898;28;20114;-69
2024/03/27 16:32:01;;;;;;;9.90;8.20;;;;;;;16.41;100.00;98626.31;10063775;28;20039;-70
2024/03/27 16:36:56;;;;;;;9.45;8.45;;;;;;;16.15;100.00;98613.94;10063391;28;20051;-70
2024/03/27 16:41:52;;;;;;;11.25;8.77;;;;;;;15.88;100.00;98621.22;10085048;28;20047;-69
2024/03/27 16:46:48;;;;;;;12.82;8.63;;;;;;;15.73;100.00;98615.81;10082239;28;20075;-70
2024/03/27 16:51:43;;;;;;;13.73;9.25;;;;;;;15.53;100.00;98617.47;10082373;28;20047;-70
2024/03/27 16:56:39;;;;;;;10.65;9.43;;;;;;;15.38;100.00;98605.72;10084857;28;20051;-71
2024/03/27 17:01:35;;;;;;;9.93;8.95;;;;;;;15.21;100.00;98615.66;10078087;28;20051;-71
2024/03/27 17:06:31;;;;;;;10.48;9.48;;;;;;;15.04;100.00;98606.31;10065021;28;20142;-69
2024/03/27 17:11:27;;;;;;;10.70;9.63;;;;;;;14.87;100.00;98627.16;10081483;28;20058;-70
2024/03/27 17:16:22;;;;;;;9.27;8.27;;;;;;;14.71;100.00;98640.56;10081877;28;20058;-69
2024/03/27 17:21:18;;;;;;;13.07;9.05;;;;;;;14.49;100.00;98646.09;10068543;28;20455;-69
2024/03/27 17:26:15;;;;;;;10.13;9.02;;;;;;;14.36;100.00;98644.91;10078362;28;20416;-70
2024/03/27 17:31:12;;;;;;;12.18;9.38;;;;;;;14.23;100.00;98643.75;10064928;28;20062;-71
2024/03/27 17:36:09;;;;;;;10.32;8.60;;;;;;;14.05;100.00;98639.03;10074558;28;20554;-72
2024/03/27 17:41:05;;;;;;;13.20;9.57;;;;;;;13.87;100.00;98632.72;10072049;28;20078;-69
2024/03/27 17:46:03;;;;;;;12.32;10.07;;;;;;;13.66;100.00;98644.47;10074202;28;20102;-71
2024/03/27 17:51:01;;;;;;;11.80;10.00;;;;;;;13.50;100.00;98636.56;10080768;28;20071;-70
2024/03/27 17:56:04;;;;;;;13.68;10.48;;;;;;;13.35;100.00;98634.97;10077625;28;20058;-71
2024/03/27 18:01:09;;;;;;;13.05;9.82;;;;;;;13.21;100.00;98641.94;10067278;28;20070;-70
2024/03/27 18:06:05;;;;;;;12.93;10.32;;;;;;;13.05;100.00;98649.72;10062080;28;20711;-71
2024/03/27 18:11:03;;;;;;;13.10;10.00;;;;;;;12.94;100.00;98643.38;10047088;28;20043;-71
2024/03/27 18:16:03;;;;;;;15.43;10.60;;;;;;;12.80;100.00;98644.88;10064889;28;20118;-70
2024/03/27 18:20:58;;;;;;;15.73;10.48;;;;;;;12.66;100.00;98644.78;10064059;28;20554;-71
2024/03/27 18:25:54;;;;;;;14.10;10.25;;;;;;;12.56;100.00;98653.75;10091063;28;20051;-70
2024/03/27 18:31:02;;;;;;;14.07;10.45;;;;;;;12.39;100.00;98669.69;10081528;28;20051;-71
2024/03/27 18:35:58;;;;;;;11.93;10.63;;;;;;;12.24;100.00;98672.69;10061883;28;20075;-71
2024/03/27 18:40:53;;;;;;;15.25;10.65;;;;;;;12.09;100.00;98671.75;10098211;28;20478;-71
2024/03/27 18:45:49;;;;;;;16.00;10.45;;;;;;;11.94;100.00;98671.63;10086257;28;20486;-71
2024/03/27 18:50:45;;;;;;;16.40;11.43;;;;;;;11.85;100.00;98660.16;10081447;28;20482;-70
2024/03/27 18:55:40;;;;;;;15.85;11.57;;;;;;;11.71;100.00;98668.22;10068039;28;20077;-71
2024/03/27 19:00:36;;;;;;;19.40;13.10;;;;;;;11.95;100.00;98678.69;10082607;28;20053;-70
2024/03/27 19:05:31;;;;;;;18.90;14.30;;;;;;;11.96;100.00;98691.19;10081829;28;20506;-72
2024/03/27 19:10:27;;;;;;;20.92;14.13;;;;;;;11.87;100.00;98693.47;10067186;28;20050;-71
2024/03/27 19:15:23;;;;;;;17.65;14.40;;;;;;;11.77;100.00;98669.47;10070624;28;20071;-70
2024/03/27 19:20:20;;;;;;;18.83;14.85;;;;;;;11.71;100.00;98673.69;10069633;28;20039;-71
2024/03/27 19:25:15;;;;;;;18.55;13.90;;;;;;;11.56;100.00;98678.25;10083764;28;20107;-71
2024/03/27 19:30:11;;;;;;;19.83;14.70;;;;;;;11.48;100.00;98674.63;10078718;28;20059;-71
2024/03/27 19:35:07;;;;;;;17.15;13.60;;;;;;;11.45;100.00;98678.13;10078226;28;20133;-70
2024/03/27 19:40:03;;;;;;;16.85;13.05;;;;;;;11.42;100.00;98700.75;10077580;28;20514;-70
2024/03/27 19:44:58;;;;;;;19.85;13.77;;;;;;;11.31;100.00;98724.47;10074352;28;20496;-70
2024/03/27 19:49:54;;;;;;;17.85;13.57;;;;;;;11.25;100.00;98723.19;10074744;28;20724;-71
2024/03/27 19:54:49;;;;;;;22.25;16.23;;;;;;;11.12;100.00;98717.97;10068288;28;20539;-70
2024/03/27 19:59:45;;;;;;;21.25;14.85;;;;;;;11.13;100.00;98718.75;10088307;28;20142;-71
2024/03/27 20:04:40;;;;;;;21.77;14.95;;;;;;;10.94;100.00;98714.19;10055243;28;20481;-71
2024/03/27 20:09:38;;;;;;;20.27;15.13;;;;;;;10.87;100.00;98720.34;10072994;28;20035;-70
2024/03/27 20:14:35;;;;;;;17.60;14.93;;;;;;;10.89;100.00;98725.44;10088278;28;20074;-71
2024/03/27 20:19:30;;;;;;;18.20;14.70;;;;;;;10.63;100.00;98716.09;10088503;28;20419;-71
2024/03/27 20:24:26;;;;;;;18.10;14.18;;;;;;;10.58;100.00;98701.91;10038185;28;20050;-71
2024/03/27 20:29:22;;;;;;;20.33;14.93;;;;;;;10.49;100.00;98683.06;10064951;28;20048;-71
2024/03/27 20:34:17;;;;;;;17.67;14.35;;;;;;;10.49;100.00;98688.53;10074790;28;20075;-71
2024/03/27 20:39:13;;;;;;;17.02;13.70;;;;;;;10.44;100.00;98686.09;10098948;28;20480;-70
2024/03/27 20:44:09;;;;;;;18.25;14.60;;;;;;;10.57;100.00;98690.22;10073781;28;20490;-70
2024/03/27 20:49:04;;;;;;;18.45;13.93;;;;;;;10.47;100.00;98685.38;10094770;28;20106;-70
2024/03/27 20:54:00;;;;;;;20.58;15.13;;;;;;;10.43;100.00;98684.53;10086104;28;20467;-71
2024/03/27 20:58:55;;;;;;;18.25;16.30;;;;;;;10.26;100.00;98675.66;10078880;28;20594;-71
2024/03/27 21:03:53;;;;;;;19.02;14.82;;;;;;;10.15;100.00;98668.44;10071466;28;20491;-71
2024/03/27 21:08:50;;;;;;;17.52;15.30;;;;;;;10.12;100.00;98669.97;10087456;28;21419;-71
2024/03/27 21:13:46;;;;;;;20.38;15.55;;;;;;;9.99;100.00;98655.69;10062850;28;20078;-71
2024/03/27 21:18:41;;;;;;;21.02;15.60;;;;;;;9.93;100.00;98656.34;10065789;28;20130;-69
2024/03/27 21:23:37;;;;;;;17.83;15.57;;;;;;;9.93;100.00;98645.44;10074683;28;20044;-73
2024/03/27 21:28:32;;;;;;;18.42;15.38;;;;;;;9.91;100.00;98654.00;10080680;28;20057;-72
2024/03/27 21:33:28;;;;;;;20.77;15.43;;;;;;;9.97;100.00;98644.34;10075372;28;20043;-72
2024/03/27 21:38:23;;;;;;;20.33;15.43;;;;;;;9.87;100.00;98626.63;10046751;28;20516;-72
2024/03/27 21:43:19;;;;;;;17.90;15.25;;;;;;;9.85;100.00;98626.19;10050319;28;20047;-72
2024/03/27 21:48:18;;;;;;;22.08;16.08;;;;;;;9.84;100.00;98621.91;10076877;28;20480;-72
2024/03/27 21:53:13;;;;;;;24.58;16.50;;;;;;;9.82;100.00;98632.41;10066059;28;20122;-72
2024/03/27 21:58:09;;;;;;;18.58;15.98;;;;;;;9.80;100.00;98631.97;10070120;28;20047;-72
2024/03/27 22:03:04;;;;;;;21.83;16.38;;;;;;;9.71;100.00;98615.03;10069717;28;20059;-72
2024/03/27 22:08:00;;;;;;;22.58;16.95;;;;;;;9.50;100.00;98622.84;10074598;28;20047;-72
2024/03/27 22:12:56;;;;;;;21.10;16.08;;;;;;;9.60;100.00;98611.34;10083877;28;20043;-72
2024/03/27 22:17:52;;;;;;;21.88;16.48;;;;;;;9.52;100.00;98613.16;10069662;28;20078;-71
2024/03/27 22:22:49;;;;;;;23.27;16.63;;;;;;;9.29;100.00;98602.19;10077963;28;20482;-72
2024/03/27 22:27:45;;;;;;;23.23;17.30;;;;;;;9.19;100.00;98591.84;10101736;28;20062;-72